Time;durP1;ratioP1;P1;durP2;ratioP2;P2;SDS_P1;SDS_P2;PMS_P1;PMS_P2;Temp;Humidity;BMP_temperature;BMP_pressure;BME280_temperature;BME280_humidity;BME280_pressure;Samples;Min_cycle;Max_cycle;Signal;HPM_P1;HPM_P2
2022/03/04 06:41:48;;;;;;;22.17;3.88;;;;;;;;;;5907058;23;20059;-81
2022/03/04 06:44:15;;;;;;;33.53;3.88;;;;;;;;;;4896226;29;20044;-82
2022/03/04 06:46:41;;;;;;;22.90;3.35;;;;;;;;;;4897448;29;20053;-84
2022/03/04 06:49:12;;;;;;;23.23;3.05;;;;;;;;;;4897940;29;20517;-82
2022/03/04 06:51:39;;;;;;;17.13;2.55;;;;;;;;;;4894625;29;20534;-86
2022/03/04 06:54:07;;;;;;;20.13;2.70;;;;;;;;;;4895209;29;20590;-86
2022/03/04 06:56:33;;;;;;;22.38;3.22;;;;;;;;;;4899489;29;20045;-83
2022/03/04 06:59:00;;;;;;;20.13;3.40;;;;;;;;;;4879207;29;20442;-82
2022/03/04 07:01:27;;;;;;;18.13;3.28;;;;;;;;;;4890392;29;20129;-81
2022/03/04 07:03:53;;;;;;;29.65;4.25;;;;;;;;;;4909874;29;20903;-82
2022/03/04 07:06:20;;;;;;;24.23;3.25;;;;;;;;;;4908632;29;20083;-82
2022/03/04 07:08:47;;;;;;;28.58;3.50;;;;;;;;;;4904650;29;20053;-83
2022/03/04 07:11:13;;;;;;;15.70;3.10;;;;;;;;;;4895812;29;20463;-83
2022/03/04 07:13:40;;;;;;;14.18;2.80;;;;;;;;;;4887117;29;20052;-82
2022/03/04 07:16:07;;;;;;;22.23;2.28;;;;;;;;;;4902346;29;20076;-82
2022/03/04 07:18:34;;;;;;;17.40;2.10;;;;;;;;;;4897191;29;20056;-82
2022/03/04 07:21:01;;;;;;;12.35;2.63;;;;;;;;;;4897698;29;20425;-81
2022/03/04 07:23:28;;;;;;;12.35;2.33;;;;;;;;;;4890591;29;20084;-83
2022/03/04 07:25:55;;;;;;;18.83;2.65;;;;;;;;;;4907793;29;20052;-83
2022/03/04 07:28:21;;;;;;;15.57;2.60;;;;;;;;;;4907341;29;20545;-83
2022/03/04 07:30:48;;;;;;;18.17;2.70;;;;;;;;;;4895050;29;20595;-83
2022/03/04 07:33:15;;;;;;;11.90;2.85;;;;;;;;;;4905231;29;20568;-83
2022/03/04 07:35:45;;;;;;;16.08;2.30;;;;;;;;;;4894196;29;20144;-83
2022/03/04 07:38:13;;;;;;;12.80;1.70;;;;;;;;;;4895538;29;20056;-84
2022/03/04 07:40:43;;;;;;;19.25;3.17;;;;;;;;;;4891726;29;20112;-85
2022/03/04 07:43:09;;;;;;;12.35;1.70;;;;;;;;;;4905656;29;20080;-85
2022/03/04 07:45:36;;;;;;;16.23;2.03;;;;;;;;;;4908709;29;20068;-83
2022/03/04 07:48:03;;;;;;;26.38;2.80;;;;;;;;;;4908049;29;20079;-83
2022/03/04 07:50:30;;;;;;;11.27;1.55;;;;;;;;;;4888901;29;20072;-82
2022/03/04 07:52:56;;;;;;;19.25;2.63;;;;;;;;;;4905388;29;20139;-82
2022/03/04 07:55:26;;;;;;;10.23;2.10;;;;;;;;;;4889164;29;20049;-83
2022/03/04 07:57:57;;;;;;;15.10;2.13;;;;;;;;;;4906138;29;20485;-83
2022/03/04 08:00:26;;;;;;;15.55;2.20;;;;;;;;;;4906420;29;20084;-83
2022/03/04 08:02:54;;;;;;;13.30;1.92;;;;;;;;;;4889444;29;20679;-83
2022/03/04 08:05:21;;;;;;;21.60;2.83;;;;;;;;;;4905186;29;20063;-84
2022/03/04 08:07:48;;;;;;;14.02;1.73;;;;;;;;;;4905689;29;20048;-83
2022/03/04 08:10:15;;;;;;;13.93;2.55;;;;;;;;;;4906698;29;20056;-83
2022/03/04 08:12:42;;;;;;;18.70;2.10;;;;;;;;;;4897723;29;20444;-84
2022/03/04 08:15:10;;;;;;;22.92;2.80;;;;;;;;;;4895709;29;20116;-83
2022/03/04 08:17:39;;;;;;;16.40;1.88;;;;;;;;;;4900344;29;20107;-83
2022/03/04 08:20:07;;;;;;;13.05;2.22;;;;;;;;;;4902711;29;20044;-81
2022/03/04 08:22:33;;;;;;;16.47;2.03;;;;;;;;;;4896129;29;20550;-83
2022/03/04 08:25:01;;;;;;;13.18;1.90;;;;;;;;;;4889948;29;20078;-83
2022/03/04 08:27:28;;;;;;;10.77;1.70;;;;;;;;;;4906536;29;20048;-85
2022/03/04 08:29:54;;;;;;;12.90;2.17;;;;;;;;;;4904932;29;20139;-84
2022/03/04 08:32:23;;;;;;;8.43;1.67;;;;;;;;;;4904671;29;20128;-84
2022/03/04 08:34:56;;;;;;;13.02;2.40;;;;;;;;;;4905066;29;20052;-84
2022/03/04 08:37:22;;;;;;;10.60;1.60;;;;;;;;;;4905199;29;20067;-85
2022/03/04 08:39:49;;;;;;;15.80;2.08;;;;;;;;;;4909955;29;20662;-85
2022/03/04 08:42:15;;;;;;;16.33;2.08;;;;;;;;;;4903893;29;20516;-84
2022/03/04 08:44:42;;;;;;;10.07;1.77;;;;;;;;;;4905015;29;20060;-84
2022/03/04 08:47:09;;;;;;;15.73;3.35;;;;;;;;;;4902489;29;20559;-83
2022/03/04 08:49:36;;;;;;;12.93;1.83;;;;;;;;;;4905115;29;20052;-84
2022/03/04 08:52:03;;;;;;;13.02;1.92;;;;;;;;;;4907283;29;20083;-84
2022/03/04 08:54:30;;;;;;;12.25;2.03;;;;;;;;;;4889936;29;20067;-84
2022/03/04 08:56:56;;;;;;;8.95;1.88;;;;;;;;;;4904733;29;20079;-83
2022/03/04 08:59:23;;;;;;;14.57;2.47;;;;;;;;;;4904026;29;20111;-83
2022/03/04 09:01:50;;;;;;;10.38;1.90;;;;;;;;;;4904381;29;20504;-84
2022/03/04 09:04:17;;;;;;;10.10;1.65;;;;;;;;;;4904970;29;20057;-84
2022/03/04 09:06:45;;;;;;;15.82;2.53;;;;;;;;;;4908792;29;20097;-84
2022/03/04 09:09:12;;;;;;;17.13;2.70;;;;;;;;;;4904251;29;20426;-84
2022/03/04 09:11:39;;;;;;;14.15;2.22;;;;;;;;;;4900523;29;20060;-83
2022/03/04 09:14:06;;;;;;;14.68;2.22;;;;;;;;;;4886024;29;20677;-83
2022/03/04 09:16:33;;;;;;;14.10;2.35;;;;;;;;;;4890364;29;20116;-83
2022/03/04 09:18:59;;;;;;;19.10;2.70;;;;;;;;;;4898535;29;20506;-83
2022/03/04 09:21:26;;;;;;;16.63;2.40;;;;;;;;;;4905722;29;20048;-83
2022/03/04 09:23:52;;;;;;;17.15;2.28;;;;;;;;;;4904193;29;20382;-82
2022/03/04 09:26:20;;;;;;;21.60;2.58;;;;;;;;;;4891591;29;20477;-83
2022/03/04 09:28:47;;;;;;;15.15;2.30;;;;;;;;;;4877024;29;20108;-83
2022/03/04 09:31:15;;;;;;;15.05;2.22;;;;;;;;;;4895048;29;20460;-83
2022/03/04 09:33:42;;;;;;;18.60;1.90;;;;;;;;;;4907395;29;20056;-83
2022/03/04 09:36:11;;;;;;;15.20;1.65;;;;;;;;;;4897339;29;20111;-83
2022/03/04 09:38:39;;;;;;;15.70;1.70;;;;;;;;;;4891345;29;20053;-83
2022/03/04 09:41:05;;;;;;;12.18;2.05;;;;;;;;;;4889472;29;20548;-83
2022/03/04 09:43:32;;;;;;;17.27;2.03;;;;;;;;;;4889365;29;20045;-83
2022/03/04 09:45:59;;;;;;;12.63;1.98;;;;;;;;;;4890154;29;20090;-82
2022/03/04 09:48:26;;;;;;;19.20;2.88;;;;;;;;;;4904719;29;20135;-82
2022/03/04 09:50:53;;;;;;;14.82;2.17;;;;;;;;;;4904484;29;20060;-83
2022/03/04 09:53:19;;;;;;;13.38;1.77;;;;;;;;;;4889438;29;20075;-82
2022/03/04 09:55:46;;;;;;;13.55;1.70;;;;;;;;;;4891494;29;20132;-83
2022/03/04 09:58:18;;;;;;;13.00;2.28;;;;;;;;;;4904609;29;20127;-82
2022/03/04 10:00:46;;;;;;;13.45;2.50;;;;;;;;;;4908302;29;20472;-82
2022/03/04 10:03:26;;;;;;;13.00;1.92;;;;;;;;;;4903126;29;20048;-83
2022/03/04 10:05:54;;;;;;;9.60;2.30;;;;;;;;;;4904002;29;20080;-82
2022/03/04 10:08:21;;;;;;;14.90;2.55;;;;;;;;;;4896595;29;20502;-81
2022/03/04 10:10:56;;;;;;;12.82;2.33;;;;;;;;;;4893120;29;20154;-81
2022/03/04 10:13:41;;;;;;;10.30;1.98;;;;;;;;;;4891308;29;20561;-83
2022/03/04 10:16:08;;;;;;;11.27;2.00;;;;;;;;;;4904279;29;20104;-83
2022/03/04 10:18:35;;;;;;;16.90;2.83;;;;;;;;;;4906487;29;20048;-83
2022/03/04 10:21:02;;;;;;;12.68;2.08;;;;;;;;;;4903405;29;20079;-84
2022/03/04 10:23:30;;;;;;;14.38;2.20;;;;;;;;;;4903188;29;20036;-83
2022/03/04 10:26:01;;;;;;;6.72;1.75;;;;;;;;;;4903645;29;20048;-83
2022/03/04 10:28:29;;;;;;;9.47;2.03;;;;;;;;;;4903013;29;20075;-83
2022/03/04 10:30:58;;;;;;;9.35;2.08;;;;;;;;;;4906629;29;20285;-83
2022/03/04 10:33:44;;;;;;;12.38;2.45;;;;;;;;;;4906873;29;20056;-83
2022/03/04 10:36:13;;;;;;;12.63;1.85;;;;;;;;;;4902994;29;20077;-83
2022/03/04 10:38:41;;;;;;;10.68;2.10;;;;;;;;;;4902972;29;20207;-83
2022/03/04 10:41:35;;;;;;;11.57;2.55;;;;;;;;;;4881553;29;20048;-83
2022/03/04 10:44:25;;;;;;;13.98;2.00;;;;;;;;;;4903163;29;20402;-83
2022/03/04 10:46:53;;;;;;;14.90;3.33;;;;;;;;;;4874162;29;20059;-82
2022/03/04 10:49:25;;;;;;;15.23;1.60;;;;;;;;;;4906062;29;20076;-83
2022/03/04 10:52:05;;;;;;;13.57;2.05;;;;;;;;;;4908988;29;20063;-82
2022/03/04 10:54:32;;;;;;;12.18;2.10;;;;;;;;;;4902978;29;20052;-82
2022/03/04 10:57:03;;;;;;;12.52;1.75;;;;;;;;;;4903695;29;20044;-84
2022/03/04 10:59:30;;;;;;;17.60;1.88;;;;;;;;;;4905433;29;20052;-82
2022/03/04 11:01:56;;;;;;;13.13;2.20;;;;;;;;;;4887593;29;20048;-81
2022/03/04 11:04:23;;;;;;;12.15;1.92;;;;;;;;;;4903775;29;22495;-81
2022/03/04 11:06:50;;;;;;;15.23;2.25;;;;;;;;;;4905297;29;20048;-82
2022/03/04 11:09:24;;;;;;;11.43;1.90;;;;;;;;;;4898236;29;20084;-82
2022/03/04 11:11:53;;;;;;;9.82;1.60;;;;;;;;;;4904909;29;20052;-82
2022/03/04 11:14:21;;;;;;;16.50;2.47;;;;;;;;;;4900580;29;20067;-83
2022/03/04 11:16:49;;;;;;;11.25;1.88;;;;;;;;;;4901993;29;20284;-83
2022/03/04 11:19:18;;;;;;;8.75;1.45;;;;;;;;;;4906575;29;20048;-82
2022/03/04 11:21:45;;;;;;;8.10;1.88;;;;;;;;;;4911640;29;20094;-83
2022/03/04 11:24:13;;;;;;;9.75;2.42;;;;;;;;;;4907774;29;20489;-82
2022/03/04 11:26:43;;;;;;;8.77;1.33;;;;;;;;;;4908438;29;20067;-83
2022/03/04 11:29:34;;;;;;;6.95;1.88;;;;;;;;;;4907309;29;20111;-83
2022/03/04 11:32:06;;;;;;;5.13;1.35;;;;;;;;;;4906236;29;20047;-81
2022/03/04 11:34:40;;;;;;;11.32;2.05;;;;;;;;;;4904200;29;20049;-83
2022/03/04 11:37:21;;;;;;;10.80;1.45;;;;;;;;;;4909538;29;20052;-82
2022/03/04 11:39:59;;;;;;;10.00;1.73;;;;;;;;;;4908819;29;20063;-82
2022/03/04 11:42:37;;;;;;;5.85;0.98;;;;;;;;;;4905108;29;20181;-83
2022/03/04 11:45:08;;;;;;;6.40;1.63;;;;;;;;;;4901537;29;20079;-84
2022/03/04 11:47:39;;;;;;;5.68;1.05;;;;;;;;;;4905223;29;20437;-83
2022/03/04 11:50:35;;;;;;;8.07;0.90;;;;;;;;;;4898580;29;20048;-83
2022/03/04 11:53:17;;;;;;;6.15;0.98;;;;;;;;;;4893307;29;20075;-86
2022/03/04 11:56:12;;;;;;;5.53;0.90;;;;;;;;;;4905288;29;20117;-83
2022/03/04 11:59:08;;;;;;;5.38;1.02;;;;;;;;;;4905645;29;20045;-84
2022/03/04 12:01:37;;;;;;;6.40;1.38;;;;;;;;;;4900233;29;20580;-85
2022/03/04 12:04:15;;;;;;;14.00;2.20;;;;;;;;;;4907243;29;20048;-82
2022/03/04 12:06:43;;;;;;;9.90;1.55;;;;;;;;;;4892088;29;20499;-85
2022/03/04 12:09:33;;;;;;;7.82;1.50;;;;;;;;;;4904874;29;20064;-84
2022/03/04 12:12:08;;;;;;;;;;;;;;;;;;4898863;29;20312;-85
2022/03/04 12:14:35;;;;;;;9.20;1.30;;;;;;;;;;4899379;29;19926;-85
2022/03/04 12:17:02;;;;;;;7.63;1.33;;;;;;;;;;4904916;29;20049;-85
2022/03/04 12:19:33;;;;;;;7.57;1.48;;;;;;;;;;4883077;29;20466;-84
2022/03/04 12:21:59;;;;;;;12.30;1.52;;;;;;;;;;4902642;29;20473;-84
2022/03/04 12:24:31;;;;;;;7.55;1.40;;;;;;;;;;4897170;29;20473;-85
2022/03/04 12:26:57;;;;;;;9.93;1.90;;;;;;;;;;4900976;29;20116;-83
2022/03/04 12:29:45;;;;;;;7.32;1.33;;;;;;;;;;4905549;29;20051;-83
2022/03/04 12:32:13;;;;;;;11.80;1.40;;;;;;;;;;4905075;29;20075;-84
2022/03/04 12:34:52;;;;;;;10.15;1.70;;;;;;;;;;4905912;29;20093;-83
2022/03/04 12:37:19;;;;;;;13.23;1.45;;;;;;;;;;4903082;29;20072;-86
2022/03/04 12:39:50;;;;;;;10.40;1.65;;;;;;;;;;4908569;29;20404;-85
2022/03/04 12:42:20;;;;;;;9.35;1.50;;;;;;;;;;4902524;29;20166;-85
2022/03/04 12:44:46;;;;;;;10.98;2.00;;;;;;;;;;4904608;29;20079;-85
2022/03/04 12:47:14;;;;;;;8.18;1.40;;;;;;;;;;4904405;29;20122;-85
2022/03/04 12:49:42;;;;;;;6.43;1.55;;;;;;;;;;4905228;29;20080;-84
2022/03/04 12:52:09;;;;;;;9.30;1.88;;;;;;;;;;4906553;29;20457;-85
2022/03/04 12:54:35;;;;;;;8.05;1.60;;;;;;;;;;4886392;29;20116;-84
2022/03/04 12:57:06;;;;;;;10.00;1.50;;;;;;;;;;4885758;29;20615;-84
2022/03/04 12:59:48;;;;;;;10.13;1.67;;;;;;;;;;4882632;29;20048;-84
2022/03/04 13:02:15;;;;;;;7.60;1.17;;;;;;;;;;4887199;29;20045;-86
2022/03/04 13:04:56;;;;;;;12.13;1.37;;;;;;;;;;4904973;29;20063;-86
2022/03/04 13:07:22;;;;;;;5.22;1.30;;;;;;;;;;4905241;29;20477;-85
2022/03/04 13:09:50;;;;;;;4.93;1.23;;;;;;;;;;4909063;29;20873;-85
2022/03/04 13:12:24;;;;;;;6.13;1.15;;;;;;;;;;4893987;29;20056;-85
2022/03/04 13:14:51;;;;;;;11.02;1.63;;;;;;;;;;4901138;29;20056;-83
2022/03/04 13:17:19;;;;;;;11.38;1.42;;;;;;;;;;4905694;29;20521;-84
2022/03/04 13:19:45;;;;;;;7.80;1.00;;;;;;;;;;4903091;29;20112;-85
2022/03/04 13:22:14;;;;;;;6.13;1.20;;;;;;;;;;4888482;29;20602;-85
2022/03/04 13:24:43;;;;;;;10.85;1.20;;;;;;;;;;4899675;29;20108;-86
2022/03/04 13:27:12;;;;;;;6.13;1.15;;;;;;;;;;4894526;29;20598;-84
2022/03/04 13:29:55;;;;;;;7.45;0.93;;;;;;;;;;4895769;29;20550;-84
2022/03/04 13:32:27;;;;;;;7.35;0.80;;;;;;;;;;4903878;29;20092;-83
2022/03/04 13:34:57;;;;;;;6.75;1.20;;;;;;;;;;4885690;29;20049;-88
2022/03/04 13:37:43;;;;;;;6.65;1.38;;;;;;;;;;4892425;29;20087;-87
2022/03/04 13:40:15;;;;;;;9.57;1.20;;;;;;;;;;4906473;29;20124;-85
2022/03/04 13:42:44;;;;;;;8.93;1.45;;;;;;;;;;4905978;29;20115;-88
2022/03/04 13:45:15;;;;;;;7.25;0.75;;;;;;;;;;4884585;29;20333;-87
2022/03/04 13:47:43;;;;;;;8.38;1.23;;;;;;;;;;4900385;29;20595;-87
2022/03/04 13:50:28;;;;;;;5.85;1.10;;;;;;;;;;4901892;29;20473;-88
2022/03/04 13:53:04;;;;;;;10.82;1.67;;;;;;;;;;4876238;29;20391;-87
2022/03/04 13:55:38;;;;;;;8.43;1.40;;;;;;;;;;4887085;29;20064;-86
2022/03/04 13:58:12;;;;;;;8.35;1.60;;;;;;;;;;4901715;29;20059;-87
2022/03/04 14:00:40;;;;;;;9.35;1.48;;;;;;;;;;4882732;29;20104;-87
2022/03/04 14:03:11;;;;;;;4.90;1.02;;;;;;;;;;4885044;29;20104;-88
2022/03/04 14:05:40;;;;;;;11.43;1.17;;;;;;;;;;4903408;29;20060;-86
2022/03/04 14:08:07;;;;;;;;;;;;;;;;;;4904045;29;20465;-86
2022/03/04 14:10:35;;;;;;;13.15;1.85;;;;;;;;;;4904146;29;19923;-86
2022/03/04 14:13:03;;;;;;;6.45;0.90;;;;;;;;;;4894604;29;20056;-86
2022/03/04 14:15:31;;;;;;;11.23;1.60;;;;;;;;;;4886523;29;20103;-86
2022/03/04 14:17:59;;;;;;;6.40;1.13;;;;;;;;;;4887401;29;20076;-87
2022/03/04 14:20:28;;;;;;;6.67;1.23;;;;;;;;;;4895503;29;20052;-85
2022/03/04 14:23:01;;;;;;;7.93;1.20;;;;;;;;;;4877942;29;20304;-85
2022/03/04 14:25:27;;;;;;;5.25;1.20;;;;;;;;;;4904072;29;20109;-87
2022/03/04 14:27:54;;;;;;;13.25;1.52;;;;;;;;;;4899458;29;20052;-84
2022/03/04 14:30:24;;;;;;;8.10;1.27;;;;;;;;;;4902829;29;20056;-85
2022/03/04 14:32:52;;;;;;;5.38;1.02;;;;;;;;;;4903000;29;20071;-86
2022/03/04 14:35:21;;;;;;;7.93;1.30;;;;;;;;;;4902768;29;20525;-86
2022/03/04 14:37:48;;;;;;;9.43;0.95;;;;;;;;;;4892614;29;20060;-85
2022/03/04 14:40:18;;;;;;;8.68;1.88;;;;;;;;;;4889972;29;20049;-87
2022/03/04 14:42:46;;;;;;;9.07;2.65;;;;;;;;;;4907294;29;20064;-85
2022/03/04 14:45:13;;;;;;;;;;;;;;;;;;4893423;29;20052;-85
2022/03/04 14:47:44;;;;;;;9.95;1.80;;;;;;;;;;4903336;29;19928;-86
2022/03/04 14:50:13;;;;;;;10.68;1.40;;;;;;;;;;4904074;29;20056;-85
2022/03/04 14:52:41;;;;;;;7.38;1.17;;;;;;;;;;4891609;29;20099;-86
2022/03/04 14:55:10;;;;;;;8.65;1.15;;;;;;;;;;4893637;29;20047;-85
2022/03/04 14:57:38;;;;;;;12.00;1.42;;;;;;;;;;4909517;29;20048;-84
2022/03/04 15:00:07;;;;;;;9.68;1.52;;;;;;;;;;4898736;29;20569;-87
2022/03/04 15:02:33;;;;;;;;;;;;;;;;;;4899781;29;20040;-85
2022/03/04 15:05:00;;;;;;;7.43;1.30;;;;;;;;;;4899583;29;19927;-84
2022/03/04 15:07:27;;;;;;;8.80;1.20;;;;;;;;;;4894354;29;20101;-87
2022/03/04 15:09:53;;;;;;;9.68;1.20;;;;;;;;;;4908351;29;20052;-88
2022/03/04 15:12:36;;;;;;;13.32;1.23;;;;;;;;;;4899817;29;20059;-87
2022/03/04 15:15:07;;;;;;;6.25;1.20;;;;;;;;;;4899710;29;20056;-87
2022/03/04 15:17:35;;;;;;;9.10;1.40;;;;;;;;;;4897801;29;20044;-86
2022/03/04 15:20:03;;;;;;;9.77;1.45;;;;;;;;;;4891033;29;20818;-85
2022/03/04 15:22:33;;;;;;;7.18;1.40;;;;;;;;;;4895274;29;20113;-86
2022/03/04 15:25:01;;;;;;;11.60;1.50;;;;;;;;;;4892332;29;20098;-86
2022/03/04 15:27:30;;;;;;;9.68;1.58;;;;;;;;;;4903513;29;20540;-85
2022/03/04 15:29:57;;;;;;;7.88;1.50;;;;;;;;;;4896279;29;20048;-86
2022/03/04 15:32:24;;;;;;;6.78;1.00;;;;;;;;;;4899811;29;20067;-85
2022/03/04 15:34:54;;;;;;;8.57;1.38;;;;;;;;;;4908299;29;20104;-86
2022/03/04 15:37:21;;;;;;;6.65;1.10;;;;;;;;;;4893456;29;20056;-87
2022/03/04 15:39:49;;;;;;;5.03;1.08;;;;;;;;;;4907891;29;20124;-86
2022/03/04 15:42:16;;;;;;;9.40;1.40;;;;;;;;;;4889824;29;20071;-85
2022/03/04 15:44:43;;;;;;;9.05;1.10;;;;;;;;;;4903076;29;20052;-85
2022/03/04 15:47:10;;;;;;;9.02;1.42;;;;;;;;;;4888974;29;20517;-87
2022/03/04 15:49:37;;;;;;;9.00;1.50;;;;;;;;;;4906164;29;20120;-86
2022/03/04 15:52:05;;;;;;;6.70;1.20;;;;;;;;;;4891501;29;20414;-85
2022/03/04 15:54:32;;;;;;;6.90;1.17;;;;;;;;;;4892376;29;20120;-85
2022/03/04 15:56:58;;;;;;;9.13;1.45;;;;;;;;;;4888841;29;20052;-86
2022/03/04 15:59:25;;;;;;;7.20;1.33;;;;;;;;;;4906041;29;20100;-86
2022/03/04 16:01:52;;;;;;;6.55;1.15;;;;;;;;;;4902707;29;20833;-86
2022/03/04 16:04:19;;;;;;;9.25;1.27;;;;;;;;;;4892996;29;20124;-85
2022/03/04 16:06:47;;;;;;;6.50;1.20;;;;;;;;;;4908450;29;20056;-86
2022/03/04 16:09:14;;;;;;;7.32;1.58;;;;;;;;;;4889039;29;20052;-86
2022/03/04 16:11:42;;;;;;;9.63;1.00;;;;;;;;;;4895102;29;20112;-86
2022/03/04 16:14:08;;;;;;;6.50;0.80;;;;;;;;;;4885821;29;20044;-80
2022/03/04 16:16:35;;;;;;;11.13;1.20;;;;;;;;;;4893709;29;20116;-82
2022/03/04 16:19:03;;;;;;;11.95;1.75;;;;;;;;;;4908848;29;20044;-83
2022/03/04 16:21:30;;;;;;;5.45;0.90;;;;;;;;;;4889228;29;20432;-82
2022/03/04 16:23:57;;;;;;;7.07;1.60;;;;;;;;;;4890094;29;20573;-81
2022/03/04 16:26:24;;;;;;;8.00;1.17;;;;;;;;;;4889903;29;20164;-83
2022/03/04 16:28:51;;;;;;;6.30;1.10;;;;;;;;;;4888897;29;20109;-80
2022/03/04 16:31:22;;;;;;;11.27;1.65;;;;;;;;;;4894902;29;20048;-84
2022/03/04 16:33:52;;;;;;;8.45;1.10;;;;;;;;;;4893355;29;20432;-84
2022/03/04 16:36:20;;;;;;;9.73;1.17;;;;;;;;;;4882882;29;20045;-83
2022/03/04 16:38:47;;;;;;;14.82;1.42;;;;;;;;;;4890562;29;20407;-84
2022/03/04 16:41:14;;;;;;;14.48;1.73;;;;;;;;;;4884648;29;20136;-84
2022/03/04 16:43:41;;;;;;;10.55;1.83;;;;;;;;;;4904948;29;20470;-83
2022/03/04 16:46:08;;;;;;;10.88;1.35;;;;;;;;;;4906517;29;20112;-82
2022/03/04 16:48:54;;;;;;;11.15;1.40;;;;;;;;;;4889800;29;20061;-84
2022/03/04 16:51:21;;;;;;;9.80;1.30;;;;;;;;;;4893472;29;20048;-83
2022/03/04 16:53:48;;;;;;;5.88;1.20;;;;;;;;;;4899372;29;20319;-83
2022/03/04 16:56:14;;;;;;;11.77;1.50;;;;;;;;;;4887455;29;20057;-82
2022/03/04 16:58:41;;;;;;;8.40;1.38;;;;;;;;;;4888218;29;20078;-82
2022/03/04 17:01:08;;;;;;;9.77;1.90;;;;;;;;;;4895767;29;20100;-82
2022/03/04 17:03:35;;;;;;;11.85;1.40;;;;;;;;;;4896641;29;20061;-83
2022/03/04 17:06:02;;;;;;;10.20;1.65;;;;;;;;;;4889520;29;20052;-84
2022/03/04 17:08:28;;;;;;;9.13;1.45;;;;;;;;;;4899647;29;20108;-83
2022/03/04 17:10:56;;;;;;;11.85;1.73;;;;;;;;;;4892144;29;20478;-83
2022/03/04 17:13:22;;;;;;;10.10;1.70;;;;;;;;;;4890196;29;20048;-84
2022/03/04 17:15:50;;;;;;;11.65;1.77;;;;;;;;;;4890862;29;20553;-84
2022/03/04 17:18:18;;;;;;;15.65;1.80;;;;;;;;;;4889004;29;20530;-84
2022/03/04 17:20:45;;;;;;;10.50;1.85;;;;;;;;;;4893106;29;20060;-85
2022/03/04 17:23:13;;;;;;;9.90;1.70;;;;;;;;;;4886723;29;20072;-83
2022/03/04 17:25:40;;;;;;;11.30;1.50;;;;;;;;;;4883525;29;20089;-82
2022/03/04 17:28:08;;;;;;;10.10;1.85;;;;;;;;;;4885485;29;20056;-80
2022/03/04 17:30:35;;;;;;;5.22;1.27;;;;;;;;;;4880617;29;20064;-83
2022/03/04 17:33:02;;;;;;;5.00;1.38;;;;;;;;;;4885374;29;20052;-83
2022/03/04 17:35:29;;;;;;;11.15;2.08;;;;;;;;;;4873798;29;20399;-82
2022/03/04 17:37:56;;;;;;;6.95;1.70;;;;;;;;;;4879298;29;20068;-82
2022/03/04 17:40:23;;;;;;;9.18;1.80;;;;;;;;;;4882163;29;20110;-84
2022/03/04 17:42:49;;;;;;;9.82;1.38;;;;;;;;;;4902043;29;20096;-83
2022/03/04 17:45:16;;;;;;;8.65;1.40;;;;;;;;;;4904159;29;20060;-82
2022/03/04 17:47:43;;;;;;;9.60;1.70;;;;;;;;;;4906242;29;20060;-81
2022/03/04 17:50:09;;;;;;;10.30;1.60;;;;;;;;;;4898728;29;20101;-83
2022/03/04 17:52:36;;;;;;;8.15;1.58;;;;;;;;;;4879620;29;20586;-85
2022/03/04 17:55:03;;;;;;;11.23;1.90;;;;;;;;;;4908698;29;20055;-85
2022/03/04 17:57:30;;;;;;;11.32;1.80;;;;;;;;;;4907380;29;20106;-86
2022/03/04 17:59:57;;;;;;;11.73;2.70;;;;;;;;;;4899757;29;20048;-85
2022/03/04 18:02:24;;;;;;;12.70;2.13;;;;;;;;;;4897162;29;20067;-85
2022/03/04 18:04:51;;;;;;;8.77;2.17;;;;;;;;;;4899767;29;20428;-85
2022/03/04 18:07:18;;;;;;;14.57;2.05;;;;;;;;;;4893936;29;20108;-85
2022/03/04 18:09:45;;;;;;;15.32;2.17;;;;;;;;;;4878329;29;20068;-83
2022/03/04 18:12:13;;;;;;;16.85;2.13;;;;;;;;;;4897193;29;20119;-85
2022/03/04 18:14:41;;;;;;;12.07;2.00;;;;;;;;;;4899073;29;20052;-86
2022/03/04 18:17:10;;;;;;;9.30;2.35;;;;;;;;;;4901906;29;20187;-85
2022/03/04 18:19:38;;;;;;;15.15;1.80;;;;;;;;;;4896222;29;20052;-84
2022/03/04 18:22:07;;;;;;;15.30;1.85;;;;;;;;;;4898493;29;20083;-83
2022/03/04 18:24:35;;;;;;;14.13;1.80;;;;;;;;;;4884726;29;20052;-85
2022/03/04 18:27:02;;;;;;;11.50;2.30;;;;;;;;;;4898252;29;20058;-84
2022/03/04 18:29:29;;;;;;;12.05;1.60;;;;;;;;;;4897594;29;20056;-83
2022/03/04 18:31:56;;;;;;;15.20;1.80;;;;;;;;;;4897885;29;20051;-84
2022/03/04 18:34:23;;;;;;;11.20;1.63;;;;;;;;;;4891601;29;20052;-84
2022/03/04 18:36:50;;;;;;;8.48;1.60;;;;;;;;;;4876365;29;20347;-85
2022/03/04 18:42:02;;;;;;;10.35;2.05;;;;;;;;;;4891642;29;20167;-82
2022/03/04 18:44:33;;;;;;;12.65;2.20;;;;;;;;;;4888594;29;20502;-82
2022/03/04 18:47:00;;;;;;;9.82;2.00;;;;;;;;;;4893823;29;20488;-82
2022/03/04 18:49:27;;;;;;;12.85;2.15;;;;;;;;;;4888335;29;20044;-82
2022/03/04 18:51:54;;;;;;;15.15;1.98;;;;;;;;;;4883742;29;20066;-83
2022/03/04 18:54:20;;;;;;;12.88;2.42;;;;;;;;;;4898463;29;20048;-83
2022/03/04 18:56:47;;;;;;;10.60;2.25;;;;;;;;;;4893205;29;20088;-83
2022/03/04 18:59:16;;;;;;;11.63;2.70;;;;;;;;;;4889398;29;20040;-83
2022/03/04 19:01:45;;;;;;;12.23;2.38;;;;;;;;;;4892853;29;20057;-82
2022/03/04 19:04:14;;;;;;;10.40;2.25;;;;;;;;;;4894276;29;20063;-82
2022/03/04 19:06:42;;;;;;;11.63;2.80;;;;;;;;;;4890242;29;20056;-83
2022/03/04 19:09:09;;;;;;;12.65;3.13;;;;;;;;;;4889492;29;20045;-83
2022/03/04 19:11:40;;;;;;;11.95;2.20;;;;;;;;;;4892445;29;20048;-82
2022/03/04 19:14:09;;;;;;;8.80;2.50;;;;;;;;;;4889854;29;20048;-83
2022/03/04 19:16:38;;;;;;;7.90;2.35;;;;;;;;;;4889777;29;20049;-83
2022/03/04 19:19:06;;;;;;;16.95;3.55;;;;;;;;;;4891479;29;20521;-84
2022/03/04 19:21:33;;;;;;;17.00;3.20;;;;;;;;;;4889510;29;20426;-83
2022/03/04 19:24:00;;;;;;;9.35;2.28;;;;;;;;;;4882664;29;20305;-82
2022/03/04 19:26:27;;;;;;;7.95;2.50;;;;;;;;;;4894490;29;20116;-82
2022/03/04 19:28:55;;;;;;;9.90;2.67;;;;;;;;;;4893775;29;20036;-83
2022/03/04 19:31:26;;;;;;;13.23;2.58;;;;;;;;;;4891255;29;20056;-83
2022/03/04 19:33:57;;;;;;;8.10;1.95;;;;;;;;;;4896564;29;20151;-83
2022/03/04 19:36:24;;;;;;;9.25;1.98;;;;;;;;;;4897452;29;20156;-83
2022/03/04 19:38:51;;;;;;;13.15;1.90;;;;;;;;;;4895410;29;20091;-83
2022/03/04 19:41:18;;;;;;;14.52;2.75;;;;;;;;;;4891282;29;20051;-83
2022/03/04 19:43:45;;;;;;;9.02;2.30;;;;;;;;;;4891611;29;20150;-83
2022/03/04 19:46:14;;;;;;;13.75;3.40;;;;;;;;;;4899394;29;20083;-83
2022/03/04 19:48:42;;;;;;;14.05;3.47;;;;;;;;;;4905773;29;20108;-83
2022/03/04 19:51:08;;;;;;;13.70;2.80;;;;;;;;;;4898770;29;20076;-84
2022/03/04 19:53:35;;;;;;;12.43;2.30;;;;;;;;;;4880751;29;20048;-83
2022/03/04 19:56:02;;;;;;;9.27;2.08;;;;;;;;;;4898004;29;20129;-83
2022/03/04 19:58:29;;;;;;;10.90;2.42;;;;;;;;;;4883789;29;20635;-82
2022/03/04 20:00:55;;;;;;;9.50;2.60;;;;;;;;;;4883522;29;20132;-82
2022/03/04 20:03:22;;;;;;;11.88;3.00;;;;;;;;;;4878653;29;20077;-82
2022/03/04 20:05:49;;;;;;;13.23;2.50;;;;;;;;;;4891080;29;20075;-82
2022/03/04 20:08:16;;;;;;;10.23;2.50;;;;;;;;;;4891225;29;20045;-81
2022/03/04 20:10:43;;;;;;;9.43;2.03;;;;;;;;;;4888819;29;20108;-83
2022/03/04 20:13:10;;;;;;;12.20;2.35;;;;;;;;;;4893481;29;20121;-81
2022/03/04 20:15:37;;;;;;;13.45;2.38;;;;;;;;;;4892602;29;20053;-81
2022/03/04 20:18:04;;;;;;;17.05;2.58;;;;;;;;;;4875603;29;20048;-81
2022/03/04 20:20:32;;;;;;;7.75;2.20;;;;;;;;;;4891951;29;20053;-81
2022/03/04 20:22:58;;;;;;;11.05;2.85;;;;;;;;;;4876803;29;20048;-81
2022/03/04 20:25:25;;;;;;;13.15;2.80;;;;;;;;;;4897331;29;20143;-79
2022/03/04 20:27:52;;;;;;;14.60;2.85;;;;;;;;;;4893190;29;20090;-84
2022/03/04 20:30:19;;;;;;;11.32;2.60;;;;;;;;;;4889694;29;20053;-82
2022/03/04 20:32:45;;;;;;;12.15;2.50;;;;;;;;;;4891830;29;20112;-83
2022/03/04 20:35:12;;;;;;;12.13;2.08;;;;;;;;;;4891391;29;20044;-82
2022/03/04 20:37:39;;;;;;;11.30;2.30;;;;;;;;;;4877648;29;20052;-84
2022/03/04 20:40:07;;;;;;;10.98;1.92;;;;;;;;;;4877030;29;20065;-81
2022/03/04 20:42:35;;;;;;;14.55;2.92;;;;;;;;;;4893238;29;20056;-81
2022/03/04 20:45:03;;;;;;;10.32;1.92;;;;;;;;;;4892346;29;20048;-81
2022/03/04 20:47:30;;;;;;;13.25;2.42;;;;;;;;;;4889674;29;20663;-82
2022/03/04 20:49:57;;;;;;;11.13;2.20;;;;;;;;;;4891612;29;20044;-82
2022/03/04 20:52:23;;;;;;;7.75;2.30;;;;;;;;;;4894457;29;20068;-82
2022/03/04 20:54:50;;;;;;;8.23;2.30;;;;;;;;;;4880209;29;20143;-82
2022/03/04 20:57:16;;;;;;;9.18;1.95;;;;;;;;;;4891312;29;20517;-81
2022/03/04 20:59:43;;;;;;;12.05;2.10;;;;;;;;;;4889907;29;20108;-80
2022/03/04 21:02:10;;;;;;;12.15;2.45;;;;;;;;;;4893707;29;20726;-81
2022/03/04 21:04:36;;;;;;;10.63;2.10;;;;;;;;;;4890209;29;20577;-81
2022/03/04 21:07:04;;;;;;;15.82;2.30;;;;;;;;;;4891992;29;20052;-81
2022/03/04 21:09:30;;;;;;;11.90;2.20;;;;;;;;;;4890826;29;20461;-81
2022/03/04 21:11:57;;;;;;;14.00;2.00;;;;;;;;;;4895793;29;20052;-82
2022/03/04 21:14:23;;;;;;;6.28;1.65;;;;;;;;;;4874416;29;20079;-80
2022/03/04 21:16:50;;;;;;;14.15;3.20;;;;;;;;;;4890530;29;20124;-82
2022/03/04 21:19:17;;;;;;;15.77;2.90;;;;;;;;;;4879452;29;20060;-82
2022/03/04 21:21:44;;;;;;;10.35;2.50;;;;;;;;;;4891527;29;20117;-83
2022/03/04 21:24:10;;;;;;;10.73;2.63;;;;;;;;;;4892754;29;20500;-81
2022/03/04 21:26:40;;;;;;;10.68;2.60;;;;;;;;;;4888430;29;20044;-82
2022/03/04 21:29:08;;;;;;;10.07;2.38;;;;;;;;;;4890331;29;20229;-81